Bulldog Sally — WDJ2058 — position and weather

sailwx.info

Track history (hours):
 
Tides and Currents Weather Stations Pressure Air Temp Water Temp Dewpoint Dewpoint Depression Visibility Wind Speed Wind Dir Waves Ship Positions

Bulldog Sally

Owner: Engel, Paul T, Malden Bridge, NY. More information available from US FCC via Universal Licensing System and Coast Guard Vessel Documentation Center.

Last reported at 2018-Jan-19 14:34 UTC. Time now 2018-Feb-25 13:31 UTC.
Position N 25°35' W 080°08'.
Warning: this ship's position is 36 days out of date.

Length 17 m.

Type: Fishing. MMSI: 367597470.

Date/timePositionNaut miles runAvg speedWind from/ knotsBaromVisibWave heightAir tempDewpointWater temp
2018-Jan-19 14:34N 25°35' W 080°08'1 7.2
2018-Jan-19 14:29N 25°36' W 080°08'3 6.9
2018-Jan-19 14:00N 25°39' W 080°08'3 5.6
2018-Jan-19 13:30N 25°40' W 080°11'2 4.2
2018-Jan-19 13:01N 25°42' W 080°11'0 0.0
2018-Jan-19 12:31N 25°42' W 080°11'0 0.0
2018-Jan-19 12:00N 25°42' W 080°11'0 0.0
2018-Jan-19 11:31N 25°42' W 080°11'0 0.0
2018-Jan-19 11:01N 25°42' W 080°11'0 0.0
2018-Jan-19 10:31N 25°42' W 080°11'0 0.0
2018-Jan-19 10:00N 25°42' W 080°11'0 0.0
2018-Jan-19 09:30N 25°42' W 080°11'0 0.0
2018-Jan-19 09:01N 25°42' W 080°11'0 0.0
2018-Jan-19 08:31N 25°42' W 080°11'0 0.0
2018-Jan-19 08:01N 25°42' W 080°11'0 0.0
2018-Jan-19 07:31N 25°42' W 080°11'0 0.0
2018-Jan-19 07:01N 25°42' W 080°11'0 0.0
2018-Jan-19 06:30N 25°42' W 080°11'0 0.0
2018-Jan-19 06:01N 25°42' W 080°11'0 0.0
2018-Jan-19 05:30N 25°42' W 080°11'0 0.0
2018-Jan-19 05:00N 25°42' W 080°11'0 0.0
2018-Jan-19 04:30N 25°42' W 080°11'0 0.0
2018-Jan-19 04:01N 25°42' W 080°11'0 0.0
2018-Jan-19 03:30N 25°42' W 080°11'0 0.0
2018-Jan-19 03:01N 25°42' W 080°11'0 0.0
2018-Jan-19 02:31N 25°42' W 080°11'0 0.0
2018-Jan-19 02:01N 25°42' W 080°11'0 0.0
2018-Jan-19 01:30N 25°42' W 080°11'0 0.0
2018-Jan-19 01:00N 25°42' W 080°11'0 0.0
2018-Jan-19 00:30N 25°42' W 080°11'0 0.0
2018-Jan-19 00:01N 25°42' W 080°11'0 0.0
2018-Jan-18 23:31N 25°42' W 080°11'0 0.1
2018-Jan-18 23:01N 25°42' W 080°11'0 0.0
2018-Jan-18 22:30N 25°42' W 080°11'0 0.0
2018-Jan-18 22:00N 25°42' W 080°11'2 3.1
2018-Jan-18 21:31N 25°43' W 080°11'3 6.6
2018-Jan-18 21:01N 25°46' W 080°11'3 6.5
2018-Jan-18 20:31N 25°46' W 080°07'4 7.2
2018-Jan-18 20:00N 25°49' W 080°06'4 7.8
2018-Jan-18 19:30N 25°53' W 080°06'4 7.9
2018-Jan-18 19:00N 25°57' W 080°06'4 8.1
2018-Jan-18 18:30N 26°01' W 080°06'4 8.1
2018-Jan-18 18:00N 26°05' W 080°06'4 8.2
2018-Jan-18 17:30N 26°09' W 080°05'4 8.1
2018-Jan-18 17:00N 26°13' W 080°05'4 8.2
2018-Jan-18 16:28N 26°18' W 080°04'4 8.2
2018-Jan-18 15:58N 26°22' W 080°04'28 7.3
2018-Jan-18 12:03N 26°50' W 080°03'0 1.8
2018-Jan-18 12:00N 26°50' W 080°03'0 0.0
2018-Jan-18 11:24N 26°50' W 080°03'0 0.0
2018-Jan-18 10:55N 26°50' W 080°03'0 0.0
2018-Jan-18 10:27N 26°50' W 080°03'0 0.0
2018-Jan-18 09:58N 26°50' W 080°03'0 0.0
2018-Jan-18 09:28N 26°50' W 080°03'0 0.0
2018-Jan-18 08:58N 26°50' W 080°03'0 0.0
2018-Jan-18 08:27N 26°50' W 080°03'0 0.0
2018-Jan-18 08:00N 26°50' W 080°03'0 0.0
2018-Jan-18 07:15N 26°50' W 080°03'0 0.0
2018-Jan-18 06:58N 26°50' W 080°03'0 0.0
2018-Jan-18 06:13N 26°50' W 080°03'0 0.0
2018-Jan-18 05:56N 26°50' W 080°03'0 0.0
2018-Jan-18 05:28N 26°50' W 080°03'0 0.0
2018-Jan-18 04:55N 26°50' W 080°03'0 0.0
2018-Jan-18 04:28N 26°50' W 080°03'  
Track history (hours):
 
Tides and Currents Weather Stations Pressure Air Temp Water Temp Dewpoint Dewpoint Depression Visibility Wind Speed Wind Dir Waves Ship Positions

Bulldog Sally

Owner: Engel, Paul T, Malden Bridge, NY. More information available from US FCC via Universal Licensing System and Coast Guard Vessel Documentation Center.

Last reported at 2018-Jan-19 14:34 UTC. Time now 2018-Feb-25 13:31 UTC.
Position N 25°35' W 080°08'.
Warning: this ship's position is 36 days out of date.

Length 17 m.

Type: Fishing. MMSI: 367597470.

Date/timePositionNaut miles runAvg speedWind from/ knotsBaromVisibWave heightAir tempDewpointWater temp
2018-Jan-19 14:34N 25°35' W 080°08'1 7.2
2018-Jan-19 14:29N 25°36' W 080°08'3 6.9
2018-Jan-19 14:00N 25°39' W 080°08'3 5.6
2018-Jan-19 13:30N 25°40' W 080°11'2 4.2
2018-Jan-19 13:01N 25°42' W 080°11'0 0.0
2018-Jan-19 12:31N 25°42' W 080°11'0 0.0
2018-Jan-19 12:00N 25°42' W 080°11'0 0.0
2018-Jan-19 11:31N 25°42' W 080°11'0 0.0
2018-Jan-19 11:01N 25°42' W 080°11'0 0.0
2018-Jan-19 10:31N 25°42' W 080°11'0 0.0
2018-Jan-19 10:00N 25°42' W 080°11'0 0.0
2018-Jan-19 09:30N 25°42' W 080°11'0 0.0
2018-Jan-19 09:01N 25°42' W 080°11'0 0.0
2018-Jan-19 08:31N 25°42' W 080°11'0 0.0
2018-Jan-19 08:01N 25°42' W 080°11'0 0.0
2018-Jan-19 07:31N 25°42' W 080°11'0 0.0
2018-Jan-19 07:01N 25°42' W 080°11'0 0.0
2018-Jan-19 06:30N 25°42' W 080°11'0 0.0
2018-Jan-19 06:01N 25°42' W 080°11'0 0.0
2018-Jan-19 05:30N 25°42' W 080°11'0 0.0
2018-Jan-19 05:00N 25°42' W 080°11'0 0.0
2018-Jan-19 04:30N 25°42' W 080°11'0 0.0
2018-Jan-19 04:01N 25°42' W 080°11'0 0.0
2018-Jan-19 03:30N 25°42' W 080°11'0 0.0
2018-Jan-19 03:01N 25°42' W 080°11'0 0.0
2018-Jan-19 02:31N 25°42' W 080°11'0 0.0
2018-Jan-19 02:01N 25°42' W 080°11'0 0.0
2018-Jan-19 01:30N 25°42' W 080°11'0 0.0
2018-Jan-19 01:00N 25°42' W 080°11'0 0.0
2018-Jan-19 00:30N 25°42' W 080°11'0 0.0
2018-Jan-19 00:01N 25°42' W 080°11'0 0.0
2018-Jan-18 23:31N 25°42' W 080°11'0 0.1
2018-Jan-18 23:01N 25°42' W 080°11'0 0.0
2018-Jan-18 22:30N 25°42' W 080°11'0 0.0
2018-Jan-18 22:00N 25°42' W 080°11'2 3.1
2018-Jan-18 21:31N 25°43' W 080°11'3 6.6
2018-Jan-18 21:01N 25°46' W 080°11'3 6.5
2018-Jan-18 20:31N 25°46' W 080°07'4 7.2
2018-Jan-18 20:00N 25°49' W 080°06'4 7.8
2018-Jan-18 19:30N 25°53' W 080°06'4 7.9
2018-Jan-18 19:00N 25°57' W 080°06'4 8.1
2018-Jan-18 18:30N 26°01' W 080°06'4 8.1
2018-Jan-18 18:00N 26°05' W 080°06'4 8.2
2018-Jan-18 17:30N 26°09' W 080°05'4 8.1
2018-Jan-18 17:00N 26°13' W 080°05'4 8.2
2018-Jan-18 16:28N 26°18' W 080°04'4 8.2
2018-Jan-18 15:58N 26°22' W 080°04'28 7.3
2018-Jan-18 12:03N 26°50' W 080°03'0 1.8
2018-Jan-18 12:00N 26°50' W 080°03'0 0.0
2018-Jan-18 11:24N 26°50' W 080°03'0 0.0
2018-Jan-18 10:55N 26°50' W 080°03'0 0.0
2018-Jan-18 10:27N 26°50' W 080°03'0 0.0
2018-Jan-18 09:58N 26°50' W 080°03'0 0.0
2018-Jan-18 09:28N 26°50' W 080°03'0 0.0
2018-Jan-18 08:58N 26°50' W 080°03'0 0.0
2018-Jan-18 08:27N 26°50' W 080°03'0 0.0
2018-Jan-18 08:00N 26°50' W 080°03'0 0.0
2018-Jan-18 07:15N 26°50' W 080°03'0 0.0
2018-Jan-18 06:58N 26°50' W 080°03'0 0.0
2018-Jan-18 06:13N 26°50' W 080°03'0 0.0
2018-Jan-18 05:56N 26°50' W 080°03'0 0.0
2018-Jan-18 05:28N 26°50' W 080°03'0 0.0
2018-Jan-18 04:55N 26°50' W 080°03'0 0.0
2018-Jan-18 04:28N 26°50' W 080°03'  

Dump ship's entire track history